sensor_id;sensor_type;location;lat;lon;timestamp;P1;durP1;ratioP1;P2;durP2;ratioP2
39256;SDS011;67272;48.066;11.038;2023-04-21T00:00:14;19.43;;;13.53;;
39256;SDS011;67272;48.066;11.038;2023-04-21T00:02:40;15.90;;;12.47;;
39256;SDS011;67272;48.066;11.038;2023-04-21T00:05:07;18.93;;;13.40;;
39256;SDS011;67272;48.066;11.038;2023-04-21T00:07:35;16.10;;;12.10;;
39256;SDS011;67272;48.066;11.038;2023-04-21T00:10:10;15.03;;;12.10;;
39256;SDS011;67272;48.066;11.038;2023-04-21T00:12:37;17.43;;;12.40;;
39256;SDS011;67272;48.066;11.038;2023-04-21T00:15:04;14.30;;;11.43;;
39256;SDS011;67272;48.066;11.038;2023-04-21T00:17:30;16.53;;;11.70;;
39256;SDS011;67272;48.066;11.038;2023-04-21T00:19:57;15.37;;;11.57;;
39256;SDS011;67272;48.066;11.038;2023-04-21T00:22:23;14.37;;;11.73;;
39256;SDS011;67272;48.066;11.038;2023-04-21T00:24:50;14.70;;;11.60;;
39256;SDS011;67272;48.066;11.038;2023-04-21T00:27:16;19.53;;;12.63;;
39256;SDS011;67272;48.066;11.038;2023-04-21T00:29:46;15.60;;;11.43;;
39256;SDS011;67272;48.066;11.038;2023-04-21T00:32:12;14.90;;;11.63;;
39256;SDS011;67272;48.066;11.038;2023-04-21T00:34:38;14.50;;;11.53;;
39256;SDS011;67272;48.066;11.038;2023-04-21T00:37:05;13.60;;;10.83;;
39256;SDS011;67272;48.066;11.038;2023-04-21T00:39:31;15.83;;;11.90;;
39256;SDS011;67272;48.066;11.038;2023-04-21T00:41:57;14.87;;;11.20;;
39256;SDS011;67272;48.066;11.038;2023-04-21T00:44:24;15.10;;;11.27;;
39256;SDS011;67272;48.066;11.038;2023-04-21T00:46:50;15.37;;;12.00;;
39256;SDS011;67272;48.066;11.038;2023-04-21T00:49:17;15.67;;;12.30;;
39256;SDS011;67272;48.066;11.038;2023-04-21T00:51:43;15.33;;;11.33;;
39256;SDS011;67272;48.066;11.038;2023-04-21T00:54:09;15.27;;;12.17;;
39256;SDS011;67272;48.066;11.038;2023-04-21T00:56:37;14.63;;;11.13;;
39256;SDS011;67272;48.066;11.038;2023-04-21T00:59:06;14.03;;;10.67;;
39256;SDS011;67272;48.066;11.038;2023-04-21T01:01:32;15.80;;;11.13;;
39256;SDS011;67272;48.066;11.038;2023-04-21T01:04:01;13.77;;;10.97;;
39256;SDS011;67272;48.066;11.038;2023-04-21T01:06:49;14.33;;;11.10;;
39256;SDS011;67272;48.066;11.038;2023-04-21T01:09:15;15.77;;;11.53;;
39256;SDS011;67272;48.066;11.038;2023-04-21T01:11:41;12.57;;;10.33;;
39256;SDS011;67272;48.066;11.038;2023-04-21T01:14:26;13.63;;;11.27;;
39256;SDS011;67272;48.066;11.038;2023-04-21T01:17:08;16.23;;;11.87;;
39256;SDS011;67272;48.066;11.038;2023-04-21T01:19:38;17.03;;;10.87;;
39256;SDS011;67272;48.066;11.038;2023-04-21T01:22:05;13.10;;;11.07;;
39256;SDS011;67272;48.066;11.038;2023-04-21T01:24:42;14.07;;;10.30;;
39256;SDS011;67272;48.066;11.038;2023-04-21T01:30:00;15.13;;;11.13;;
39256;SDS011;67272;48.066;11.038;2023-04-21T01:32:27;13.17;;;10.60;;
39256;SDS011;67272;48.066;11.038;2023-04-21T01:34:54;13.80;;;10.60;;
39256;SDS011;67272;48.066;11.038;2023-04-21T01:37:29;12.87;;;10.30;;
39256;SDS011;67272;48.066;11.038;2023-04-21T01:40:00;12.87;;;10.80;;
39256;SDS011;67272;48.066;11.038;2023-04-21T01:42:29;13.37;;;10.40;;
39256;SDS011;67272;48.066;11.038;2023-04-21T01:44:56;13.27;;;11.07;;
39256;SDS011;67272;48.066;11.038;2023-04-21T01:47:23;12.87;;;10.60;;
39256;SDS011;67272;48.066;11.038;2023-04-21T01:49:49;13.53;;;10.43;;
39256;SDS011;67272;48.066;11.038;2023-04-21T01:52:17;12.90;;;10.77;;
39256;SDS011;67272;48.066;11.038;2023-04-21T01:54:44;13.00;;;10.53;;
39256;SDS011;67272;48.066;11.038;2023-04-21T01:57:12;13.57;;;10.57;;
39256;SDS011;67272;48.066;11.038;2023-04-21T01:59:38;13.80;;;10.67;;
39256;SDS011;67272;48.066;11.038;2023-04-21T02:02:05;15.53;;;11.83;;
39256;SDS011;67272;48.066;11.038;2023-04-21T02:04:32;14.63;;;11.27;;
39256;SDS011;67272;48.066;11.038;2023-04-21T02:07:01;16.70;;;12.53;;
39256;SDS011;67272;48.066;11.038;2023-04-21T02:09:31;16.40;;;11.70;;
39256;SDS011;67272;48.066;11.038;2023-04-21T02:11:57;15.83;;;11.60;;
39256;SDS011;67272;48.066;11.038;2023-04-21T02:14:24;14.37;;;11.43;;
39256;SDS011;67272;48.066;11.038;2023-04-21T02:16:51;16.47;;;11.60;;
39256;SDS011;67272;48.066;11.038;2023-04-21T02:19:17;14.67;;;11.37;;
39256;SDS011;67272;48.066;11.038;2023-04-21T02:21:43;15.97;;;11.90;;
39256;SDS011;67272;48.066;11.038;2023-04-21T02:24:10;14.80;;;11.77;;
39256;SDS011;67272;48.066;11.038;2023-04-21T02:26:36;17.67;;;12.77;;
39256;SDS011;67272;48.066;11.038;2023-04-21T02:29:02;16.77;;;12.83;;
39256;SDS011;67272;48.066;11.038;2023-04-21T02:31:28;15.67;;;12.60;;
39256;SDS011;67272;48.066;11.038;2023-04-21T02:33:54;15.30;;;12.27;;
39256;SDS011;67272;48.066;11.038;2023-04-21T02:36:20;15.10;;;11.33;;
39256;SDS011;67272;48.066;11.038;2023-04-21T02:38:47;13.20;;;11.07;;
39256;SDS011;67272;48.066;11.038;2023-04-21T02:41:13;13.67;;;10.77;;
39256;SDS011;67272;48.066;11.038;2023-04-21T02:43:39;14.60;;;11.37;;
39256;SDS011;67272;48.066;11.038;2023-04-21T02:46:06;14.43;;;11.20;;
39256;SDS011;67272;48.066;11.038;2023-04-21T02:48:33;15.50;;;11.23;;
39256;SDS011;67272;48.066;11.038;2023-04-21T02:50:59;15.80;;;12.03;;
39256;SDS011;67272;48.066;11.038;2023-04-21T02:53:25;15.80;;;12.67;;
39256;SDS011;67272;48.066;11.038;2023-04-21T02:55:52;15.80;;;12.27;;
39256;SDS011;67272;48.066;11.038;2023-04-21T02:58:18;14.03;;;11.80;;
39256;SDS011;67272;48.066;11.038;2023-04-21T03:00:44;15.30;;;11.90;;
39256;SDS011;67272;48.066;11.038;2023-04-21T03:03:11;14.43;;;11.80;;
39256;SDS011;67272;48.066;11.038;2023-04-21T03:05:37;14.67;;;11.43;;
39256;SDS011;67272;48.066;11.038;2023-04-21T03:08:04;15.00;;;11.23;;
39256;SDS011;67272;48.066;11.038;2023-04-21T03:10:35;13.93;;;11.17;;
39256;SDS011;67272;48.066;11.038;2023-04-21T03:13:01;14.90;;;11.27;;
39256;SDS011;67272;48.066;11.038;2023-04-21T03:15:34;14.07;;;10.87;;
39256;SDS011;67272;48.066;11.038;2023-04-21T03:18:00;12.93;;;11.27;;
39256;SDS011;67272;48.066;11.038;2023-04-21T03:20:27;14.70;;;11.90;;
39256;SDS011;67272;48.066;11.038;2023-04-21T03:22:53;15.63;;;11.80;;
39256;SDS011;67272;48.066;11.038;2023-04-21T03:25:20;12.93;;;10.37;;
39256;SDS011;67272;48.066;11.038;2023-04-21T03:27:49;49.40;;;26.37;;
39256;SDS011;67272;48.066;11.038;2023-04-21T03:30:16;24.27;;;15.43;;
39256;SDS011;67272;48.066;11.038;2023-04-21T03:32:42;26.80;;;16.47;;
39256;SDS011;67272;48.066;11.038;2023-04-21T03:35:14;31.20;;;17.77;;
39256;SDS011;67272;48.066;11.038;2023-04-21T03:37:41;21.13;;;14.00;;
39256;SDS011;67272;48.066;11.038;2023-04-21T03:40:07;16.20;;;12.07;;
39256;SDS011;67272;48.066;11.038;2023-04-21T03:42:34;13.83;;;10.83;;
39256;SDS011;67272;48.066;11.038;2023-04-21T03:45:04;17.10;;;11.83;;
39256;SDS011;67272;48.066;11.038;2023-04-21T03:47:32;13.00;;;10.33;;
39256;SDS011;67272;48.066;11.038;2023-04-21T03:49:59;14.80;;;11.20;;
39256;SDS011;67272;48.066;11.038;2023-04-21T03:52:25;15.33;;;11.80;;
39256;SDS011;67272;48.066;11.038;2023-04-21T03:54:51;14.17;;;11.37;;
39256;SDS011;67272;48.066;11.038;2023-04-21T03:57:18;15.20;;;11.43;;
39256;SDS011;67272;48.066;11.038;2023-04-21T03:59:44;17.93;;;12.27;;
39256;SDS011;67272;48.066;11.038;2023-04-21T04:02:10;15.77;;;11.77;;
39256;SDS011;67272;48.066;11.038;2023-04-21T04:04:37;17.40;;;12.93;;
39256;SDS011;67272;48.066;11.038;2023-04-21T04:07:03;15.03;;;12.00;;
39256;SDS011;67272;48.066;11.038;2023-04-21T04:09:31;17.10;;;11.73;;
39256;SDS011;67272;48.066;11.038;2023-04-21T04:11:58;13.63;;;11.23;;
39256;SDS011;67272;48.066;11.038;2023-04-21T04:14:24;13.97;;;10.80;;
39256;SDS011;67272;48.066;11.038;2023-04-21T04:16:50;12.83;;;10.77;;
39256;SDS011;67272;48.066;11.038;2023-04-21T04:19:19;12.90;;;10.33;;
39256;SDS011;67272;48.066;11.038;2023-04-21T04:21:46;11.53;;;9.80;;
39256;SDS011;67272;48.066;11.038;2023-04-21T04:24:12;14.80;;;10.43;;
39256;SDS011;67272;48.066;11.038;2023-04-21T04:26:40;10.47;;;8.90;;
39256;SDS011;67272;48.066;11.038;2023-04-21T04:29:06;14.13;;;9.43;;
39256;SDS011;67272;48.066;11.038;2023-04-21T04:31:34;10.87;;;9.57;;
39256;SDS011;67272;48.066;11.038;2023-04-21T04:34:01;13.47;;;10.70;;
39256;SDS011;67272;48.066;11.038;2023-04-21T04:36:27;12.63;;;10.40;;
39256;SDS011;67272;48.066;11.038;2023-04-21T04:38:55;11.60;;;10.40;;
39256;SDS011;67272;48.066;11.038;2023-04-21T04:41:24;11.27;;;10.03;;
39256;SDS011;67272;48.066;11.038;2023-04-21T04:43:50;12.53;;;10.33;;
39256;SDS011;67272;48.066;11.038;2023-04-21T04:46:17;13.40;;;10.23;;
39256;SDS011;67272;48.066;11.038;2023-04-21T04:48:45;12.20;;;10.23;;
39256;SDS011;67272;48.066;11.038;2023-04-21T04:51:17;11.50;;;9.63;;
39256;SDS011;67272;48.066;11.038;2023-04-21T04:53:43;13.50;;;10.60;;
39256;SDS011;67272;48.066;11.038;2023-04-21T04:56:10;12.50;;;10.07;;
39256;SDS011;67272;48.066;11.038;2023-04-21T04:58:39;12.20;;;10.67;;
39256;SDS011;67272;48.066;11.038;2023-04-21T05:01:15;13.97;;;10.90;;
39256;SDS011;67272;48.066;11.038;2023-04-21T05:03:42;12.70;;;10.20;;
39256;SDS011;67272;48.066;11.038;2023-04-21T05:06:08;11.90;;;9.57;;
39256;SDS011;67272;48.066;11.038;2023-04-21T05:08:35;11.83;;;10.53;;
39256;SDS011;67272;48.066;11.038;2023-04-21T05:11:01;13.97;;;10.13;;
39256;SDS011;67272;48.066;11.038;2023-04-21T05:13:28;12.57;;;10.10;;
39256;SDS011;67272;48.066;11.038;2023-04-21T05:16:00;12.67;;;10.47;;
39256;SDS011;67272;48.066;11.038;2023-04-21T05:18:27;13.10;;;10.60;;
39256;SDS011;67272;48.066;11.038;2023-04-21T05:20:59;13.77;;;11.13;;
39256;SDS011;67272;48.066;11.038;2023-04-21T05:23:26;14.20;;;11.73;;
39256;SDS011;67272;48.066;11.038;2023-04-21T05:25:52;14.67;;;11.37;;
39256;SDS011;67272;48.066;11.038;2023-04-21T05:28:24;14.00;;;11.27;;
39256;SDS011;67272;48.066;11.038;2023-04-21T05:30:54;12.83;;;10.80;;
39256;SDS011;67272;48.066;11.038;2023-04-21T05:33:23;12.67;;;10.90;;
39256;SDS011;67272;48.066;11.038;2023-04-21T05:35:50;14.37;;;11.13;;
39256;SDS011;67272;48.066;11.038;2023-04-21T05:38:17;12.17;;;9.77;;
39256;SDS011;67272;48.066;11.038;2023-04-21T05:40:51;13.20;;;10.60;;
39256;SDS011;67272;48.066;11.038;2023-04-21T05:43:18;12.57;;;10.57;;
39256;SDS011;67272;48.066;11.038;2023-04-21T05:45:44;12.00;;;10.63;;
39256;SDS011;67272;48.066;11.038;2023-04-21T05:48:13;11.60;;;10.40;;
39256;SDS011;67272;48.066;11.038;2023-04-21T05:50:40;11.50;;;10.10;;
39256;SDS011;67272;48.066;11.038;2023-04-21T05:53:06;11.30;;;9.83;;
39256;SDS011;67272;48.066;11.038;2023-04-21T05:55:33;12.90;;;10.03;;
39256;SDS011;67272;48.066;11.038;2023-04-21T05:57:59;12.63;;;11.13;;
39256;SDS011;67272;48.066;11.038;2023-04-21T06:00:25;12.97;;;10.17;;
39256;SDS011;67272;48.066;11.038;2023-04-21T06:02:52;14.20;;;10.70;;
39256;SDS011;67272;48.066;11.038;2023-04-21T06:05:18;10.73;;;9.53;;
39256;SDS011;67272;48.066;11.038;2023-04-21T06:07:45;12.37;;;10.33;;
39256;SDS011;67272;48.066;11.038;2023-04-21T06:10:12;12.43;;;10.60;;
39256;SDS011;67272;48.066;11.038;2023-04-21T06:12:38;16.30;;;11.43;;
39256;SDS011;67272;48.066;11.038;2023-04-21T06:15:05;15.33;;;12.03;;
39256;SDS011;67272;48.066;11.038;2023-04-21T06:17:31;15.57;;;11.40;;
39256;SDS011;67272;48.066;11.038;2023-04-21T06:19:58;16.17;;;12.20;;
39256;SDS011;67272;48.066;11.038;2023-04-21T06:22:27;15.80;;;11.93;;
39256;SDS011;67272;48.066;11.038;2023-04-21T06:24:53;15.67;;;12.20;;
39256;SDS011;67272;48.066;11.038;2023-04-21T06:27:20;13.93;;;10.73;;
39256;SDS011;67272;48.066;11.038;2023-04-21T06:29:46;17.50;;;11.87;;
39256;SDS011;67272;48.066;11.038;2023-04-21T06:32:12;12.50;;;10.23;;
39256;SDS011;67272;48.066;11.038;2023-04-21T06:34:38;15.10;;;10.70;;
39256;SDS011;67272;48.066;11.038;2023-04-21T06:37:07;13.90;;;10.70;;
39256;SDS011;67272;48.066;11.038;2023-04-21T06:39:34;14.83;;;11.60;;
39256;SDS011;67272;48.066;11.038;2023-04-21T06:42:03;15.43;;;11.00;;
39256;SDS011;67272;48.066;11.038;2023-04-21T06:44:36;14.00;;;10.77;;
39256;SDS011;67272;48.066;11.038;2023-04-21T06:47:03;13.33;;;10.97;;
39256;SDS011;67272;48.066;11.038;2023-04-21T06:49:29;15.33;;;11.77;;
39256;SDS011;67272;48.066;11.038;2023-04-21T06:51:55;15.00;;;11.63;;
39256;SDS011;67272;48.066;11.038;2023-04-21T06:54:21;11.13;;;9.90;;
39256;SDS011;67272;48.066;11.038;2023-04-21T06:56:48;14.73;;;10.13;;
39256;SDS011;67272;48.066;11.038;2023-04-21T06:59:15;12.90;;;9.73;;
39256;SDS011;67272;48.066;11.038;2023-04-21T07:01:41;13.97;;;10.07;;
39256;SDS011;67272;48.066;11.038;2023-04-21T07:04:11;10.77;;;9.67;;
39256;SDS011;67272;48.066;11.038;2023-04-21T07:06:37;11.10;;;9.43;;
39256;SDS011;67272;48.066;11.038;2023-04-21T07:09:09;11.10;;;9.37;;
39256;SDS011;67272;48.066;11.038;2023-04-21T07:11:36;11.30;;;9.80;;
39256;SDS011;67272;48.066;11.038;2023-04-21T07:14:05;12.37;;;10.70;;
39256;SDS011;67272;48.066;11.038;2023-04-21T07:16:31;10.90;;;9.40;;
39256;SDS011;67272;48.066;11.038;2023-04-21T07:18:57;11.30;;;9.80;;
39256;SDS011;67272;48.066;11.038;2023-04-21T07:21:24;11.77;;;9.70;;
39256;SDS011;67272;48.066;11.038;2023-04-21T07:23:51;12.07;;;10.00;;
39256;SDS011;67272;48.066;11.038;2023-04-21T07:26:17;12.13;;;9.77;;
39256;SDS011;67272;48.066;11.038;2023-04-21T07:28:45;13.00;;;9.47;;
39256;SDS011;67272;48.066;11.038;2023-04-21T07:31:11;12.40;;;9.63;;
39256;SDS011;67272;48.066;11.038;2023-04-21T07:33:39;11.87;;;9.80;;
39256;SDS011;67272;48.066;11.038;2023-04-21T07:36:05;12.33;;;9.07;;
39256;SDS011;67272;48.066;11.038;2023-04-21T07:38:31;10.60;;;9.13;;
39256;SDS011;67272;48.066;11.038;2023-04-21T07:40:57;10.85;;;9.63;;
39256;SDS011;67272;48.066;11.038;2023-04-21T07:43:24;12.13;;;9.95;;
39256;SDS011;67272;48.066;11.038;2023-04-21T07:45:51;10.30;;;8.55;;
39256;SDS011;67272;48.066;11.038;2023-04-21T07:48:17;11.70;;;8.85;;
39256;SDS011;67272;48.066;11.038;2023-04-21T07:50:44;10.43;;;8.57;;
39256;SDS011;67272;48.066;11.038;2023-04-21T07:53:11;10.13;;;8.70;;
39256;SDS011;67272;48.066;11.038;2023-04-21T07:55:37;10.02;;;9.02;;
39256;SDS011;67272;48.066;11.038;2023-04-21T07:58:05;10.85;;;8.77;;
39256;SDS011;67272;48.066;11.038;2023-04-21T08:00:36;9.50;;;8.43;;
39256;SDS011;67272;48.066;11.038;2023-04-21T08:03:03;9.02;;;7.65;;
39256;SDS011;67272;48.066;11.038;2023-04-21T08:05:31;11.18;;;8.73;;
39256;SDS011;67272;48.066;11.038;2023-04-21T08:07:59;9.93;;;8.57;;
39256;SDS011;67272;48.066;11.038;2023-04-21T08:10:27;9.30;;;8.40;;
39256;SDS011;67272;48.066;11.038;2023-04-21T08:12:55;8.20;;;7.38;;
39256;SDS011;67272;48.066;11.038;2023-04-21T08:15:23;9.05;;;8.15;;
39256;SDS011;67272;48.066;11.038;2023-04-21T08:17:51;8.45;;;7.55;;
39256;SDS011;67272;48.066;11.038;2023-04-21T08:20:20;9.02;;;7.72;;
39256;SDS011;67272;48.066;11.038;2023-04-21T08:22:50;7.15;;;6.45;;
39256;SDS011;67272;48.066;11.038;2023-04-21T08:25:18;7.32;;;6.63;;
39256;SDS011;67272;48.066;11.038;2023-04-21T08:27:44;8.02;;;7.00;;
39256;SDS011;67272;48.066;11.038;2023-04-21T08:30:10;6.22;;;5.63;;
39256;SDS011;67272;48.066;11.038;2023-04-21T08:32:37;7.50;;;6.15;;
39256;SDS011;67272;48.066;11.038;2023-04-21T08:35:03;6.35;;;5.75;;
39256;SDS011;67272;48.066;11.038;2023-04-21T08:37:30;7.15;;;6.43;;
39256;SDS011;67272;48.066;11.038;2023-04-21T08:39:56;6.32;;;5.72;;
39256;SDS011;67272;48.066;11.038;2023-04-21T08:42:22;6.63;;;5.93;;
39256;SDS011;67272;48.066;11.038;2023-04-21T08:44:49;5.55;;;5.05;;
39256;SDS011;67272;48.066;11.038;2023-04-21T08:47:15;5.53;;;4.70;;
39256;SDS011;67272;48.066;11.038;2023-04-21T08:49:41;5.88;;;5.38;;
39256;SDS011;67272;48.066;11.038;2023-04-21T08:52:12;5.60;;;5.10;;
39256;SDS011;67272;48.066;11.038;2023-04-21T08:54:39;5.15;;;4.68;;
39256;SDS011;67272;48.066;11.038;2023-04-21T08:57:05;5.45;;;4.95;;
39256;SDS011;67272;48.066;11.038;2023-04-21T08:59:32;5.70;;;5.20;;
39256;SDS011;67272;48.066;11.038;2023-04-21T09:02:11;6.20;;;5.70;;
39256;SDS011;67272;48.066;11.038;2023-04-21T09:04:40;6.70;;;6.00;;
39256;SDS011;67272;48.066;11.038;2023-04-21T09:07:10;5.47;;;5.00;;
39256;SDS011;67272;48.066;11.038;2023-04-21T09:09:55;5.97;;;5.47;;
39256;SDS011;67272;48.066;11.038;2023-04-21T09:12:22;5.40;;;5.00;;
39256;SDS011;67272;48.066;11.038;2023-04-21T09:14:48;5.60;;;5.10;;
39256;SDS011;67272;48.066;11.038;2023-04-21T09:17:16;5.60;;;5.20;;
39256;SDS011;67272;48.066;11.038;2023-04-21T09:19:42;5.53;;;5.03;;
39256;SDS011;67272;48.066;11.038;2023-04-21T09:22:13;5.32;;;4.90;;
39256;SDS011;67272;48.066;11.038;2023-04-21T09:24:46;4.55;;;4.15;;
39256;SDS011;67272;48.066;11.038;2023-04-21T09:27:19;4.82;;;4.43;;
39256;SDS011;67272;48.066;11.038;2023-04-21T09:29:46;4.78;;;4.40;;
39256;SDS011;67272;48.066;11.038;2023-04-21T09:32:19;5.30;;;4.90;;
39256;SDS011;67272;48.066;11.038;2023-04-21T09:34:45;5.10;;;4.70;;
39256;SDS011;67272;48.066;11.038;2023-04-21T09:37:11;4.80;;;4.40;;
39256;SDS011;67272;48.066;11.038;2023-04-21T09:39:38;5.10;;;4.70;;
39256;SDS011;67272;48.066;11.038;2023-04-21T09:42:09;4.68;;;4.28;;
39256;SDS011;67272;48.066;11.038;2023-04-21T09:44:35;5.05;;;4.65;;
39256;SDS011;67272;48.066;11.038;2023-04-21T09:47:02;5.00;;;4.60;;
39256;SDS011;67272;48.066;11.038;2023-04-21T09:49:30;4.60;;;4.20;;
39256;SDS011;67272;48.066;11.038;2023-04-21T09:51:56;5.00;;;4.60;;
39256;SDS011;67272;48.066;11.038;2023-04-21T09:54:27;4.40;;;4.00;;
39256;SDS011;67272;48.066;11.038;2023-04-21T09:56:53;4.60;;;4.20;;
39256;SDS011;67272;48.066;11.038;2023-04-21T09:59:25;5.00;;;4.63;;
39256;SDS011;67272;48.066;11.038;2023-04-21T10:01:54;5.07;;;4.68;;
39256;SDS011;67272;48.066;11.038;2023-04-21T10:04:23;4.68;;;4.25;;
39256;SDS011;67272;48.066;11.038;2023-04-21T10:06:50;4.65;;;4.25;;
39256;SDS011;67272;48.066;11.038;2023-04-21T10:09:17;4.57;;;4.28;;
39256;SDS011;67272;48.066;11.038;2023-04-21T10:11:43;4.43;;;4.13;;
39256;SDS011;67272;48.066;11.038;2023-04-21T10:14:24;4.30;;;4.00;;
39256;SDS011;67272;48.066;11.038;2023-04-21T10:16:57;3.95;;;3.65;;
39256;SDS011;67272;48.066;11.038;2023-04-21T10:19:28;3.30;;;3.10;;
39256;SDS011;67272;48.066;11.038;2023-04-21T10:21:59;3.13;;;2.92;;
39256;SDS011;67272;48.066;11.038;2023-04-21T10:24:28;3.17;;;2.97;;
39256;SDS011;67272;48.066;11.038;2023-04-21T10:26:57;3.60;;;3.40;;
39256;SDS011;67272;48.066;11.038;2023-04-21T10:29:28;3.90;;;3.60;;
39256;SDS011;67272;48.066;11.038;2023-04-21T10:31:55;4.05;;;3.75;;
39256;SDS011;67272;48.066;11.038;2023-04-21T10:39:27;4.30;;;4.00;;
39256;SDS011;67272;48.066;11.038;2023-04-21T10:41:54;4.72;;;4.32;;
39256;SDS011;67272;48.066;11.038;2023-04-21T10:44:25;5.55;;;5.13;;
39256;SDS011;67272;48.066;11.038;2023-04-21T10:46:56;5.10;;;4.70;;
39256;SDS011;67272;48.066;11.038;2023-04-21T10:49:24;5.20;;;4.70;;
39256;SDS011;67272;48.066;11.038;2023-04-21T10:57:21;4.40;;;4.10;;
39256;SDS011;67272;48.066;11.038;2023-04-21T10:59:47;4.63;;;4.22;;
39256;SDS011;67272;48.066;11.038;2023-04-21T11:02:15;5.35;;;4.95;;
39256;SDS011;67272;48.066;11.038;2023-04-21T11:04:42;5.28;;;4.82;;
39256;SDS011;67272;48.066;11.038;2023-04-21T11:07:15;6.55;;;5.95;;
39256;SDS011;67272;48.066;11.038;2023-04-21T11:09:42;5.75;;;5.25;;
39256;SDS011;67272;48.066;11.038;2023-04-21T11:14:35;5.22;;;4.82;;
39256;SDS011;67272;48.066;11.038;2023-04-21T11:17:02;4.82;;;4.43;;
39256;SDS011;67272;48.066;11.038;2023-04-21T11:19:30;5.43;;;5.03;;
39256;SDS011;67272;48.066;11.038;2023-04-21T11:21:56;5.25;;;4.85;;
39256;SDS011;67272;48.066;11.038;2023-04-21T11:24:23;5.55;;;5.15;;
39256;SDS011;67272;48.066;11.038;2023-04-21T11:26:50;5.28;;;4.82;;
39256;SDS011;67272;48.066;11.038;2023-04-21T11:29:16;5.72;;;5.28;;
39256;SDS011;67272;48.066;11.038;2023-04-21T11:31:43;4.63;;;4.22;;
39256;SDS011;67272;48.066;11.038;2023-04-21T11:34:12;4.88;;;4.47;;
39256;SDS011;67272;48.066;11.038;2023-04-21T11:36:43;5.00;;;4.60;;
39256;SDS011;67272;48.066;11.038;2023-04-21T11:39:11;4.50;;;4.10;;
39256;SDS011;67272;48.066;11.038;2023-04-21T11:41:38;4.78;;;4.38;;
39256;SDS011;67272;48.066;11.038;2023-04-21T11:44:12;4.70;;;4.30;;
39256;SDS011;67272;48.066;11.038;2023-04-21T11:46:47;4.20;;;3.90;;
39256;SDS011;67272;48.066;11.038;2023-04-21T11:49:14;4.25;;;3.95;;
39256;SDS011;67272;48.066;11.038;2023-04-21T11:51:45;4.93;;;4.53;;
39256;SDS011;67272;48.066;11.038;2023-04-21T11:54:12;4.65;;;4.25;;
39256;SDS011;67272;48.066;11.038;2023-04-21T11:56:42;4.47;;;4.18;;
39256;SDS011;67272;48.066;11.038;2023-04-21T11:59:12;5.05;;;4.65;;
39256;SDS011;67272;48.066;11.038;2023-04-21T12:01:48;5.30;;;4.90;;
39256;SDS011;67272;48.066;11.038;2023-04-21T12:04:19;5.68;;;5.15;;
39256;SDS011;67272;48.066;11.038;2023-04-21T12:06:46;5.18;;;4.78;;
39256;SDS011;67272;48.066;11.038;2023-04-21T12:09:19;4.97;;;4.57;;
39256;SDS011;67272;48.066;11.038;2023-04-21T12:11:49;3.90;;;3.60;;
39256;SDS011;67272;48.066;11.038;2023-04-21T12:14:16;3.80;;;3.50;;
39256;SDS011;67272;48.066;11.038;2023-04-21T12:16:43;3.40;;;3.10;;
39256;SDS011;67272;48.066;11.038;2023-04-21T12:19:09;3.40;;;3.20;;
39256;SDS011;67272;48.066;11.038;2023-04-21T12:21:38;3.10;;;2.90;;
39256;SDS011;67272;48.066;11.038;2023-04-21T12:24:04;3.22;;;3.03;;
39256;SDS011;67272;48.066;11.038;2023-04-21T12:26:30;3.22;;;2.80;;
39256;SDS011;67272;48.066;11.038;2023-04-21T12:28:57;2.50;;;2.30;;
39256;SDS011;67272;48.066;11.038;2023-04-21T12:31:24;4.10;;;3.10;;
39256;SDS011;67272;48.066;11.038;2023-04-21T12:33:50;3.25;;;2.92;;
39256;SDS011;67272;48.066;11.038;2023-04-21T12:36:17;2.70;;;2.50;;
39256;SDS011;67272;48.066;11.038;2023-04-21T12:38:43;2.33;;;2.13;;
39256;SDS011;67272;48.066;11.038;2023-04-21T12:41:09;2.30;;;2.10;;
39256;SDS011;67272;48.066;11.038;2023-04-21T12:43:35;2.67;;;2.47;;
39256;SDS011;67272;48.066;11.038;2023-04-21T12:46:01;2.22;;;2.13;;
39256;SDS011;67272;48.066;11.038;2023-04-21T12:48:27;2.10;;;2.00;;
39256;SDS011;67272;48.066;11.038;2023-04-21T12:50:53;1.98;;;1.88;;
39256;SDS011;67272;48.066;11.038;2023-04-21T12:53:20;2.53;;;2.40;;
39256;SDS011;67272;48.066;11.038;2023-04-21T12:55:46;3.10;;;2.90;;
39256;SDS011;67272;48.066;11.038;2023-04-21T12:58:13;2.60;;;2.40;;
39256;SDS011;67272;48.066;11.038;2023-04-21T13:00:41;3.15;;;2.95;;
39256;SDS011;67272;48.066;11.038;2023-04-21T13:03:10;2.78;;;2.58;;
39256;SDS011;67272;48.066;11.038;2023-04-21T13:05:36;2.55;;;2.40;;
39256;SDS011;67272;48.066;11.038;2023-04-21T13:08:03;2.60;;;2.40;;
39256;SDS011;67272;48.066;11.038;2023-04-21T13:10:30;2.58;;;2.38;;
39256;SDS011;67272;48.066;11.038;2023-04-21T13:12:56;2.97;;;2.78;;
39256;SDS011;67272;48.066;11.038;2023-04-21T13:15:22;2.95;;;2.75;;
39256;SDS011;67272;48.066;11.038;2023-04-21T13:18:01;3.17;;;2.97;;
39256;SDS011;67272;48.066;11.038;2023-04-21T13:20:28;3.28;;;3.08;;
39256;SDS011;67272;48.066;11.038;2023-04-21T13:23:01;3.40;;;3.10;;
39256;SDS011;67272;48.066;11.038;2023-04-21T13:25:34;3.88;;;3.50;;
39256;SDS011;67272;48.066;11.038;2023-04-21T13:28:00;2.90;;;2.70;;
39256;SDS011;67272;48.066;11.038;2023-04-21T13:30:26;3.55;;;3.25;;
39256;SDS011;67272;48.066;11.038;2023-04-21T13:32:53;3.17;;;2.97;;
39256;SDS011;67272;48.066;11.038;2023-04-21T13:35:19;2.85;;;2.65;;
39256;SDS011;67272;48.066;11.038;2023-04-21T13:37:45;3.00;;;2.70;;
39256;SDS011;67272;48.066;11.038;2023-04-21T13:40:13;2.80;;;2.60;;
39256;SDS011;67272;48.066;11.038;2023-04-21T13:42:39;3.25;;;2.97;;
39256;SDS011;67272;48.066;11.038;2023-04-21T13:45:06;3.17;;;2.90;;
39256;SDS011;67272;48.066;11.038;2023-04-21T13:47:33;2.85;;;2.65;;
39256;SDS011;67272;48.066;11.038;2023-04-21T13:50:00;3.05;;;2.85;;
39256;SDS011;67272;48.066;11.038;2023-04-21T13:52:26;2.85;;;2.65;;
39256;SDS011;67272;48.066;11.038;2023-04-21T13:54:52;2.67;;;2.47;;
39256;SDS011;67272;48.066;11.038;2023-04-21T13:57:19;3.33;;;3.13;;
39256;SDS011;67272;48.066;11.038;2023-04-21T13:59:46;4.85;;;4.38;;
39256;SDS011;67272;48.066;11.038;2023-04-21T14:02:13;4.20;;;3.90;;
39256;SDS011;67272;48.066;11.038;2023-04-21T14:04:39;3.80;;;3.50;;
39256;SDS011;67272;48.066;11.038;2023-04-21T14:07:06;3.92;;;3.53;;
39256;SDS011;67272;48.066;11.038;2023-04-21T14:09:33;3.80;;;3.50;;
39256;SDS011;67272;48.066;11.038;2023-04-21T14:12:02;4.53;;;4.13;;
39256;SDS011;67272;48.066;11.038;2023-04-21T14:14:29;4.05;;;3.75;;
39256;SDS011;67272;48.066;11.038;2023-04-21T14:16:58;3.88;;;3.58;;
39256;SDS011;67272;48.066;11.038;2023-04-21T14:19:30;4.05;;;3.75;;
39256;SDS011;67272;48.066;11.038;2023-04-21T14:21:57;4.07;;;3.72;;
39256;SDS011;67272;48.066;11.038;2023-04-21T14:24:23;3.65;;;3.35;;
39256;SDS011;67272;48.066;11.038;2023-04-21T14:26:53;3.85;;;3.55;;
39256;SDS011;67272;48.066;11.038;2023-04-21T14:29:21;4.15;;;3.80;;
39256;SDS011;67272;48.066;11.038;2023-04-21T14:31:47;4.40;;;4.10;;
39256;SDS011;67272;48.066;11.038;2023-04-21T14:34:14;4.20;;;3.90;;
39256;SDS011;67272;48.066;11.038;2023-04-21T14:36:40;4.05;;;3.67;;
39256;SDS011;67272;48.066;11.038;2023-04-21T14:39:07;3.28;;;3.08;;